Terminal Aerodrome Forecast
Issued by NWS Sioux Falls, SD

Home | Current Version | Previous Version | Graphics & Text | Print | Product List | Glossary On
Versions: 1 2 3 4 5 6 7 8 9 10 11 12 13 14 15 16 17
061
FTUS43 KFSD 180540
TAFFSD
TAF
KFSD 180540Z 1806/1906 33012KT P6SM OVC070
     FM181100 33011KT P6SM SCT120
     FM181400 32011KT P6SM BKN035
     FM181800 33016G25KT P6SM SCT035
     FM182300 32008KT P6SM SKC=

USA.gov is the U.S. government's official web portal to all federal, state and local government web resources and services.